This is the latest recevied weather packets stored in our database for station/object F1AGU-13. If no packets are shown the sender has not sent any weather packets the latest 10 day(s).
| Time | Temp. | Humidity | Pressure | Rain* | Wind** | Luminosity | Snow |
|---|---|---|---|---|---|---|---|
| 1787475617 | 17.22° C | 71% | 1022.7 hPa | 0 mm | - | - | - |
| 1787475017 | 16.67° C | 72% | 1022.4 hPa | 0 mm | - | - | - |
| 1787474417 | 16.67° C | 73% | 1022.5 hPa | 0 mm | - | - | - |
| 1787473817 | 16.11° C | 75% | 1022.4 hPa | 0 mm | - | - | - |
| 1787473217 | 15° C | 77% | 1022.2 hPa | 0 mm | - | - | - |
| 1787472617 | 14.44° C | 81% | 1022.3 hPa | 0 mm | - | - | - |
| 1787472023 | 12.78° C | 84% | 1022.2 hPa | 0 mm | - | - | - |
| 1787471417 | 11.67° C | 88% | 1022 hPa | 0 mm | - | - | - |
| 1787470817 | 11.11° C | 88% | 1021.9 hPa | 0 mm | - | - | - |
| 1787470217 | 10.56° C | 89% | 1022 hPa | 0 mm | - | - | - |
| 1787469617 | 10° C | 91% | 1022.1 hPa | 0 mm | - | - | - |
| 1787469017 | 9.44° C | 92% | 1021.9 hPa | 0 mm | - | - | - |
| 1787468417 | 8.89° C | 92% | 1022.3 hPa | 0 mm | - | - | - |
| 1787467825 | 8.89° C | 92% | 1022.3 hPa | 0 mm | - | - | - |
| 1787467217 | 8.89° C | 93% | 1022.5 hPa | 0 mm | - | - | - |
| 1787466667 | 8.89° C | 92% | 1022.4 hPa | 0 mm | - | - | - |
| 1787466017 | 8.33° C | 93% | 1022.4 hPa | 0 mm | - | - | - |
| 1787465416 | 8.33° C | 93% | 1022.3 hPa | 0 mm | - | - | - |
| 1787464817 | 8.33° C | 93% | 1022.7 hPa | 0 mm | - | - | - |
| 1787464217 | 8.33° C | 93% | 1022.7 hPa | 0 mm | - | - | - |
| 1787463617 | 8.33° C | 93% | 1022.8 hPa | 0 mm | - | - | - |
| 1787463017 | 8.33° C | 93% | 1023 hPa | 0 mm | - | - | - |
| 1787462417 | 7.78° C | 93% | 1022.9 hPa | 0 mm | - | - | - |
| 1787461817 | 8.33° C | 92% | 1022.9 hPa | 0 mm | - | - | - |
| 1787461217 | 8.33° C | 92% | 1022.9 hPa | 0 mm | - | - | - |
* Rain latest hour (hover to see other rain measurements)
** Current wind speed in m/s (hover to see current wind gust speed)